Time;durP1;ratioP1;P1;durP2;ratioP2;P2;SDS_P1;SDS_P2;PMS_P1;PMS_P2;Temp;Humidity;BMP_temperature;BMP_pressure;BME280_temperature;BME280_humidity;BME280_pressure;Samples;Min_cycle;Max_cycle;Signal;HPM_P1;HPM_P2
2023/07/10 00:02:09;;;;;;;1.70;0.73;;;23.10;67.50;;;;;;5051975;28;20033;-76
2023/07/10 00:04:35;;;;;;;0.70;0.50;;;23.10;67.50;;;;;;5007206;28;20511;-76
2023/07/10 00:07:00;;;;;;;1.02;0.70;;;23.10;67.40;;;;;;5032537;28;20041;-76
2023/07/10 00:09:26;;;;;;;1.30;0.68;;;23.10;67.10;;;;;;5047126;28;20487;-76
2023/07/10 00:11:51;;;;;;;1.95;0.70;;;23.00;67.00;;;;;;5029851;28;20520;-76
2023/07/10 00:14:22;;;;;;;1.10;0.98;;;23.10;67.10;;;;;;5030736;28;20049;-76
2023/07/10 00:16:48;;;;;;;0.60;0.60;;;23.00;66.90;;;;;;5022201;28;20053;-76
2023/07/10 00:19:14;;;;;;;0.60;0.40;;;23.10;67.00;;;;;;5051806;28;20049;-76
2023/07/10 00:21:40;;;;;;;1.95;0.60;;;23.10;67.30;;;;;;5063798;28;20045;-76
2023/07/10 00:24:06;;;;;;;0.70;0.60;;;23.10;67.20;;;;;;5035191;28;20056;-75
2023/07/10 00:26:31;;;;;;;0.77;0.55;;;23.00;67.20;;;;;;5017716;28;20045;-76
2023/07/10 00:28:58;;;;;;;0.80;0.60;;;23.10;67.50;;;;;;5014294;28;20065;-76
2023/07/10 00:31:24;;;;;;;0.60;0.38;;;23.00;67.30;;;;;;5028299;28;20049;-76
2023/07/10 00:33:50;;;;;;;1.23;0.80;;;23.00;67.80;;;;;;5023844;28;20033;-76
2023/07/10 00:36:33;;;;;;;0.85;0.50;;;23.10;67.20;;;;;;5041422;28;20044;-76
2023/07/10 00:39:04;;;;;;;1.15;0.77;;;23.00;67.30;;;;;;5037871;28;20036;-76
2023/07/10 00:41:32;;;;;;;0.60;0.40;;;23.00;67.40;;;;;;5035210;28;20068;-75
2023/07/10 00:44:00;;;;;;;0.95;0.75;;;23.10;67.90;;;;;;5027377;28;20033;-76
2023/07/10 00:46:59;;;;;;;0.50;0.50;;;23.10;68.40;;;;;;5064176;28;20037;-76
2023/07/10 00:49:29;;;;;;;1.15;0.70;;;23.10;68.00;;;;;;5008026;28;20029;-75
2023/07/10 00:52:14;;;;;;;1.60;0.45;;;23.10;68.40;;;;;;5044197;28;20068;-76
2023/07/10 00:54:43;;;;;;;0.93;0.60;;;23.10;68.20;;;;;;5046098;28;20042;-76
2023/07/10 00:57:21;;;;;;;1.40;0.52;;;23.10;67.60;;;;;;5049796;28;20057;-76
2023/07/10 00:59:47;;;;;;;1.20;0.52;;;23.10;67.50;;;;;;5049186;28;20077;-76
2023/07/10 01:02:13;;;;;;;0.85;0.40;;;23.10;67.50;;;;;;5048330;28;20190;-76
2023/07/10 01:04:40;;;;;;;0.85;0.50;;;23.10;67.50;;;;;;5035489;28;20053;-76
2023/07/10 01:07:16;;;;;;;0.80;0.63;;;23.00;67.40;;;;;;5064216;28;20045;-76
2023/07/10 01:09:45;;;;;;;1.30;0.68;;;23.10;67.30;;;;;;5052036;28;21137;-75
2023/07/10 01:12:10;;;;;;;0.90;0.52;;;23.10;67.20;;;;;;5066314;28;20053;-76
2023/07/10 01:14:36;;;;;;;0.45;0.30;;;23.00;67.10;;;;;;5048315;28;20518;-76
2023/07/10 01:17:05;;;;;;;1.00;0.68;;;23.10;67.40;;;;;;5050792;28;20057;-76
2023/07/10 01:19:30;;;;;;;1.58;0.65;;;23.00;67.50;;;;;;5051711;28;20033;-75
2023/07/10 01:21:56;;;;;;;1.10;0.50;;;23.00;67.50;;;;;;5034781;28;20041;-76
2023/07/10 01:24:21;;;;;;;1.13;0.65;;;23.00;67.40;;;;;;5042170;28;20100;-76
2023/07/10 01:26:47;;;;;;;1.48;0.68;;;23.00;67.30;;;;;;5042350;28;20115;-75
2023/07/10 01:29:21;;;;;;;5.80;0.57;;;23.10;67.70;;;;;;5060242;28;20120;-75
2023/07/10 01:31:48;;;;;;;0.90;0.65;;;23.10;67.80;;;;;;5059944;28;20057;-75
2023/07/10 01:34:13;;;;;;;1.10;0.68;;;23.10;67.90;;;;;;5040120;28;20049;-75
2023/07/10 01:36:39;;;;;;;1.15;0.65;;;23.10;68.00;;;;;;5044566;28;20032;-75
2023/07/10 01:39:10;;;;;;;0.60;0.50;;;23.00;67.90;;;;;;5050314;28;20049;-76
2023/07/10 01:41:41;;;;;;;1.85;0.70;;;23.00;67.70;;;;;;5048053;28;20043;-75
2023/07/10 01:44:30;;;;;;;1.67;0.70;;;23.00;67.90;;;;;;5044863;28;20075;-76
2023/07/10 01:46:56;;;;;;;1.05;0.50;;;23.00;67.60;;;;;;5039948;28;20069;-76
2023/07/10 01:49:26;;;;;;;0.95;0.45;;;23.00;67.60;;;;;;5034502;28;20071;-75
2023/07/10 01:51:51;;;;;;;1.35;0.60;;;23.00;67.70;;;;;;5065382;28;20041;-75
2023/07/10 01:54:17;;;;;;;1.25;0.50;;;23.00;67.30;;;;;;5033934;28;20037;-75
2023/07/10 01:56:43;;;;;;;1.27;0.70;;;23.00;67.40;;;;;;5044750;28;20037;-75
2023/07/10 01:59:08;;;;;;;2.45;0.70;;;23.00;67.20;;;;;;5064733;28;20124;-76
2023/07/10 02:01:34;;;;;;;0.95;0.60;;;23.00;67.40;;;;;;5050235;28;20510;-76
2023/07/10 02:04:00;;;;;;;0.50;0.40;;;23.00;67.40;;;;;;5052650;28;20392;-75
2023/07/10 02:06:26;;;;;;;0.90;0.68;;;23.00;67.70;;;;;;5026928;28;20131;-75
2023/07/10 02:08:51;;;;;;;0.90;0.50;;;23.00;67.90;;;;;;5050239;28;20067;-75
2023/07/10 02:11:17;;;;;;;0.70;0.50;;;23.00;68.30;;;;;;5052702;28;20029;-76
2023/07/10 02:13:43;;;;;;;0.70;0.30;;;23.00;68.20;;;;;;5045503;28;20048;-76
2023/07/10 02:16:10;;;;;;;0.63;0.57;;;23.00;68.20;;;;;;5021584;28;20413;-76
2023/07/10 02:18:35;;;;;;;1.00;0.70;;;23.00;67.50;;;;;;5048776;28;20048;-75
2023/07/10 02:21:01;;;;;;;1.05;0.63;;;23.00;68.10;;;;;;5063825;28;20037;-76
2023/07/10 02:23:26;;;;;;;1.15;0.50;;;23.00;67.80;;;;;;5052099;28;20043;-76
2023/07/10 02:25:52;;;;;;;1.02;0.50;;;23.00;67.80;;;;;;5046666;28;20502;-76
2023/07/10 02:28:17;;;;;;;0.75;0.40;;;23.00;68.20;;;;;;5049763;28;20041;-76
2023/07/10 02:30:43;;;;;;;0.68;0.50;;;23.00;68.00;;;;;;5057674;28;20525;-75
2023/07/10 02:33:09;;;;;;;0.80;0.52;;;23.00;68.00;;;;;;5053170;28;20413;-75
2023/07/10 02:35:34;;;;;;;1.17;0.50;;;23.00;68.10;;;;;;5051178;28;20056;-75
2023/07/10 02:38:00;;;;;;;0.65;0.52;;;23.00;68.00;;;;;;5059551;28;20056;-76
2023/07/10 02:40:25;;;;;;;1.00;0.57;;;23.00;68.00;;;;;;5058705;28;20036;-76
2023/07/10 02:42:51;;;;;;;1.35;0.75;;;23.00;67.50;;;;;;5045819;28;20475;-76
2023/07/10 02:45:17;;;;;;;0.52;0.47;;;23.00;67.70;;;;;;5030320;28;20093;-76
2023/07/10 02:47:43;;;;;;;0.60;0.50;;;23.00;67.60;;;;;;5065369;28;20041;-76
2023/07/10 02:50:09;;;;;;;0.60;0.52;;;23.00;67.60;;;;;;5053062;28;20040;-76
2023/07/10 02:52:34;;;;;;;0.68;0.50;;;23.00;67.70;;;;;;5054516;28;20045;-75
2023/07/10 02:55:00;;;;;;;1.00;0.57;;;23.00;68.30;;;;;;5057999;28;20052;-76
2023/07/10 02:57:26;;;;;;;1.00;0.45;;;23.00;67.40;;;;;;5056914;28;20036;-75
2023/07/10 02:59:51;;;;;;;0.50;0.40;;;23.00;67.40;;;;;;5057597;28;20170;-76
2023/07/10 03:02:17;;;;;;;1.85;0.38;;;23.00;67.40;;;;;;5058677;28;20440;-75
2023/07/10 03:04:42;;;;;;;1.10;0.40;;;23.00;67.50;;;;;;5057137;28;20043;-75
2023/07/10 03:07:08;;;;;;;0.80;0.60;;;23.00;67.50;;;;;;5058620;28;20044;-75
2023/07/10 03:09:34;;;;;;;1.30;0.90;;;23.00;67.40;;;;;;5070493;28;20603;-75
2023/07/10 03:12:00;;;;;;;0.82;0.40;;;23.00;67.50;;;;;;5056233;28;20028;-76
2023/07/10 03:14:25;;;;;;;1.67;0.70;;;23.00;67.50;;;;;;5043342;28;20044;-75
2023/07/10 03:16:51;;;;;;;1.25;0.68;;;23.00;67.50;;;;;;5049270;28;20121;-75
2023/07/10 03:19:17;;;;;;;0.60;0.50;;;23.00;67.50;;;;;;5059473;28;20481;-76
2023/07/10 03:21:42;;;;;;;0.80;0.45;;;23.00;67.50;;;;;;5036087;28;20025;-76
2023/07/10 03:24:08;;;;;;;2.08;0.52;;;23.00;67.50;;;;;;5068632;28;20035;-75
2023/07/10 03:26:34;;;;;;;0.80;0.50;;;23.00;68.00;;;;;;5056066;28;20497;-75
2023/07/10 03:29:07;;;;;;;0.98;0.63;;;23.00;69.00;;;;;;5055304;28;20068;-76
2023/07/10 03:31:32;;;;;;;0.50;0.30;;;23.00;68.40;;;;;;5071710;28;20037;-75
2023/07/10 03:33:58;;;;;;;0.40;0.40;;;23.00;68.20;;;;;;5066860;28;20044;-76
2023/07/10 03:36:24;;;;;;;0.70;0.40;;;23.00;68.20;;;;;;5053724;28;20041;-76
2023/07/10 03:38:49;;;;;;;0.88;0.45;;;23.00;68.70;;;;;;5039985;28;20044;-75
2023/07/10 03:41:15;;;;;;;0.65;0.40;;;23.00;68.50;;;;;;5035254;28;20418;-75
2023/07/10 03:43:40;;;;;;;0.55;0.40;;;23.00;68.60;;;;;;5054531;28;20615;-74
2023/07/10 03:46:06;;;;;;;0.82;0.40;;;23.00;68.60;;;;;;5053510;28;20036;-75
2023/07/10 03:48:31;;;;;;;0.60;0.52;;;23.00;68.60;;;;;;5049589;28;20119;-75
2023/07/10 03:50:57;;;;;;;0.60;0.60;;;23.00;68.70;;;;;;5049638;28;20199;-75
2023/07/10 03:53:23;;;;;;;0.80;0.60;;;23.00;68.50;;;;;;5071922;28;20045;-75
2023/07/10 03:55:50;;;;;;;0.73;0.50;;;23.00;68.80;;;;;;5033837;28;20855;-75
2023/07/10 03:58:22;;;;;;;0.50;0.47;;;22.90;68.60;;;;;;5052407;28;20388;-76
2023/07/10 04:00:49;;;;;;;0.73;0.40;;;23.00;69.10;;;;;;5062051;28;20045;-75
2023/07/10 04:03:14;;;;;;;0.65;0.40;;;22.90;69.00;;;;;;5043699;28;20082;-76
2023/07/10 04:05:42;;;;;;;1.40;0.73;;;22.90;68.80;;;;;;5013007;28;21168;-75
2023/07/10 04:08:07;;;;;;;0.52;0.40;;;23.00;68.80;;;;;;5046017;28;20042;-76
2023/07/10 04:10:34;;;;;;;0.32;0.28;;;23.00;68.70;;;;;;5045835;28;20047;-75
2023/07/10 04:13:01;;;;;;;0.50;0.30;;;23.00;68.30;;;;;;5033366;28;20044;-76
2023/07/10 04:15:26;;;;;;;0.75;0.40;;;23.00;68.70;;;;;;5018645;28;20042;-75
2023/07/10 04:17:53;;;;;;;0.55;0.35;;;22.90;68.70;;;;;;5019677;28;20587;-75
2023/07/10 04:20:18;;;;;;;1.50;0.63;;;22.90;68.80;;;;;;5028726;28;20029;-76
2023/07/10 04:22:44;;;;;;;0.45;0.40;;;22.90;68.80;;;;;;5031646;28;20506;-75
2023/07/10 04:25:10;;;;;;;0.50;0.40;;;22.90;68.70;;;;;;5032977;28;20038;-76
2023/07/10 04:27:35;;;;;;;0.43;0.32;;;22.90;68.70;;;;;;5045167;28;20055;-75
2023/07/10 04:30:01;;;;;;;0.52;0.30;;;23.00;68.50;;;;;;5018405;28;20144;-75
2023/07/10 04:32:26;;;;;;;0.30;0.30;;;23.00;68.50;;;;;;5030003;28;20508;-76
2023/07/10 04:34:52;;;;;;;0.57;0.30;;;23.00;68.50;;;;;;5027486;28;20792;-75
2023/07/10 04:37:18;;;;;;;1.52;0.50;;;22.90;68.40;;;;;;5031478;28;20041;-75
2023/07/10 04:39:43;;;;;;;0.57;0.47;;;23.00;68.50;;;;;;5011391;28;20045;-75
2023/07/10 04:42:09;;;;;;;0.32;0.25;;;22.90;68.40;;;;;;5031626;28;20116;-75
2023/07/10 04:44:34;;;;;;;2.08;0.93;;;22.90;68.50;;;;;;5042316;28;20047;-75
2023/07/10 04:47:00;;;;;;;2.10;1.10;;;22.70;64.40;;;;;;5013224;28;20064;-75
2023/07/10 04:49:25;;;;;;;3.35;1.55;;;21.10;68.10;;;;;;5009417;28;20049;-75
2023/07/10 04:51:51;;;;;;;4.00;0.88;;;20.20;71.70;;;;;;5012725;28;20120;-74
2023/07/10 04:54:17;;;;;;;3.45;1.20;;;19.90;73.10;;;;;;5035026;28;20558;-75
2023/07/10 04:56:42;;;;;;;2.25;1.10;;;19.50;75.20;;;;;;5026861;28;20068;-77
2023/07/10 04:59:08;;;;;;;1.85;1.10;;;19.10;77.10;;;;;;5024505;28;20134;-76
2023/07/10 05:01:34;;;;;;;2.78;1.55;;;18.90;78.00;;;;;;5037882;28;20406;-75
2023/07/10 05:03:59;;;;;;;4.43;1.67;;;18.80;78.30;;;;;;5027139;28;20049;-75
2023/07/10 05:06:25;;;;;;;2.80;1.00;;;18.80;78.60;;;;;;5032188;28;20544;-75
2023/07/10 05:08:54;;;;;;;3.05;1.30;;;18.80;79.30;;;;;;5028122;28;20042;-74
2023/07/10 05:11:22;;;;;;;2.55;0.90;;;18.80;79.00;;;;;;5054024;28;20519;-76
2023/07/10 05:13:47;;;;;;;3.25;1.23;;;18.70;79.60;;;;;;5027584;28;20045;-75
2023/07/10 05:16:13;;;;;;;2.00;1.02;;;18.60;79.90;;;;;;5032647;28;20047;-75
2023/07/10 05:18:39;;;;;;;3.28;1.30;;;18.50;80.30;;;;;;5042715;28;20054;-77
2023/07/10 05:21:04;;;;;;;2.38;1.15;;;18.50;80.70;;;;;;5022944;28;20573;-76
2023/07/10 05:23:30;;;;;;;2.28;1.20;;;18.50;81.10;;;;;;5031184;28;20037;-76
2023/07/10 05:26:02;;;;;;;2.80;1.63;;;18.50;80.40;;;;;;5027247;28;20076;-76
2023/07/10 05:28:28;;;;;;;3.30;1.35;;;18.50;81.00;;;;;;5029740;28;20056;-78
2023/07/10 05:30:56;;;;;;;2.30;1.17;;;18.40;81.30;;;;;;5045172;28;20041;-76
2023/07/10 05:33:22;;;;;;;2.70;1.30;;;18.50;81.30;;;;;;5021019;28;20139;-76
2023/07/10 05:35:53;;;;;;;3.78;1.20;;;18.40;81.60;;;;;;5026285;28;20057;-76
2023/07/10 05:38:20;;;;;;;3.05;1.40;;;18.30;82.10;;;;;;5025918;28;20045;-76
2023/07/10 05:40:46;;;;;;;1.70;1.27;;;18.30;82.00;;;;;;5013577;28;20046;-77
2023/07/10 05:43:12;;;;;;;6.22;1.90;;;18.30;81.70;;;;;;5044747;28;20036;-77
2023/07/10 05:45:37;;;;;;;3.55;1.30;;;18.30;82.00;;;;;;5048868;28;20075;-76
2023/07/10 05:48:03;;;;;;;3.50;1.40;;;18.30;82.40;;;;;;5031362;28;20033;-76
2023/07/10 05:50:29;;;;;;;3.28;1.50;;;18.20;82.60;;;;;;5048805;28;20045;-77
2023/07/10 05:52:54;;;;;;;2.75;1.45;;;18.30;83.20;;;;;;5064306;28;20051;-76
2023/07/10 05:55:21;;;;;;;2.58;1.42;;;18.40;83.00;;;;;;5050267;28;20045;-76
2023/07/10 05:57:47;;;;;;;2.92;1.33;;;18.40;83.10;;;;;;5053525;28;20379;-76
2023/07/10 06:00:13;;;;;;;3.08;1.40;;;18.50;83.20;;;;;;5051739;28;20059;-77
2023/07/10 06:02:39;;;;;;;3.55;1.30;;;18.50;83.80;;;;;;5038244;28;20037;-76
2023/07/10 06:05:05;;;;;;;4.65;1.60;;;18.50;83.80;;;;;;5044886;28;20048;-76
2023/07/10 06:07:30;;;;;;;4.18;1.92;;;18.60;84.20;;;;;;5056539;28;20057;-77
2023/07/10 06:09:56;;;;;;;2.47;1.30;;;18.60;84.50;;;;;;5031813;28;20075;-76
2023/07/10 06:12:21;;;;;;;3.33;1.27;;;18.70;84.40;;;;;;5044319;28;20415;-76
2023/07/10 06:14:47;;;;;;;4.45;1.85;;;18.80;83.60;;;;;;5028632;28;20048;-76
2023/07/10 06:17:12;;;;;;;2.47;1.17;;;18.90;83.80;;;;;;5033844;28;20091;-76
2023/07/10 06:19:38;;;;;;;2.85;1.20;;;19.10;82.70;;;;;;5032963;28;20339;-76
2023/07/10 06:22:05;;;;;;;3.45;1.27;;;19.30;81.60;;;;;;5050445;28;20037;-77
2023/07/10 06:24:31;;;;;;;3.45;1.40;;;19.50;81.00;;;;;;5024635;28;20044;-76
2023/07/10 06:26:56;;;;;;;3.20;1.20;;;19.70;80.00;;;;;;5044578;28;20045;-76
2023/07/10 06:29:22;;;;;;;3.03;1.30;;;20.00;79.00;;;;;;5046825;28;20083;-76
2023/07/10 06:31:47;;;;;;;3.42;1.20;;;20.10;78.00;;;;;;5046198;28;20468;-76
2023/07/10 06:34:13;;;;;;;2.67;1.20;;;20.20;77.60;;;;;;5031758;28;20033;-77
2023/07/10 06:36:38;;;;;;;1.58;0.80;;;20.40;77.20;;;;;;5056992;28;20131;-77
2023/07/10 06:39:04;;;;;;;2.78;1.08;;;20.50;76.80;;;;;;5045731;28;20048;-76
2023/07/10 06:41:30;;;;;;;2.20;0.93;;;20.60;76.50;;;;;;5059263;28;20045;-76
2023/07/10 06:43:56;;;;;;;2.35;1.17;;;20.60;76.60;;;;;;5044595;28;20037;-76
2023/07/10 06:46:22;;;;;;;2.15;1.08;;;20.60;76.50;;;;;;5042119;28;20045;-76
2023/07/10 06:48:48;;;;;;;3.67;1.17;;;20.70;76.90;;;;;;5032641;28;20125;-76
2023/07/10 06:51:13;;;;;;;2.60;1.02;;;20.80;75.80;;;;;;5051353;28;20053;-76
2023/07/10 06:53:39;;;;;;;3.20;1.25;;;20.80;75.60;;;;;;5032807;28;20044;-77
2023/07/10 06:56:05;;;;;;;3.80;1.00;;;20.80;75.50;;;;;;5046257;28;20059;-77
2023/07/10 06:58:31;;;;;;;1.17;0.90;;;20.90;75.70;;;;;;5031091;28;20045;-77
2023/07/10 07:00:57;;;;;;;1.33;0.75;;;20.90;75.40;;;;;;5026656;28;20094;-78
2023/07/10 07:03:23;;;;;;;3.70;0.90;;;20.90;75.10;;;;;;5047166;28;20048;-78
2023/07/10 07:05:48;;;;;;;3.40;1.20;;;20.90;75.10;;;;;;5026413;28;20041;-77
2023/07/10 07:08:14;;;;;;;5.72;1.40;;;20.90;75.00;;;;;;5015454;28;20522;-77
2023/07/10 07:10:41;;;;;;;2.58;1.10;;;21.00;74.90;;;;;;5039569;28;20048;-77
2023/07/10 07:13:06;;;;;;;2.95;1.08;;;21.00;74.70;;;;;;5049616;28;20669;-77
2023/07/10 07:15:32;;;;;;;1.33;1.02;;;21.00;74.40;;;;;;5029936;28;20041;-77
2023/07/10 07:17:57;;;;;;;2.05;1.10;;;21.10;74.50;;;;;;5028327;28;20045;-77
2023/07/10 07:20:23;;;;;;;1.00;0.77;;;21.10;74.40;;;;;;5029653;28;20033;-77
2023/07/10 07:22:48;;;;;;;3.03;0.95;;;21.10;74.20;;;;;;5034341;28;20079;-77
2023/07/10 07:25:14;;;;;;;3.00;1.00;;;21.10;74.10;;;;;;5035369;28;20554;-77
2023/07/10 07:27:40;;;;;;;2.08;1.00;;;21.10;74.10;;;;;;5031433;28;20045;-77
2023/07/10 07:30:06;;;;;;;1.30;0.90;;;21.20;73.80;;;;;;5051552;28;20029;-77
2023/07/10 07:32:31;;;;;;;2.72;0.73;;;21.20;73.70;;;;;;5046916;28;20067;-78
2023/07/10 07:34:57;;;;;;;2.40;1.10;;;21.20;73.60;;;;;;5048332;28;20046;-77
2023/07/10 07:37:22;;;;;;;1.30;0.77;;;21.30;73.60;;;;;;5036584;28;20041;-78
2023/07/10 07:39:48;;;;;;;1.55;1.33;;;21.30;73.40;;;;;;5042986;28;20082;-78
2023/07/10 07:42:14;;;;;;;2.28;0.80;;;21.30;73.40;;;;;;5044102;28;20140;-78
2023/07/10 07:44:41;;;;;;;2.20;1.38;;;21.30;73.20;;;;;;5030967;28;20045;-78
2023/07/10 07:47:06;;;;;;;1.38;0.82;;;21.40;73.10;;;;;;5053127;28;20260;-77
2023/07/10 07:49:32;;;;;;;1.48;1.00;;;21.40;73.00;;;;;;5031567;28;20486;-77
2023/07/10 07:51:57;;;;;;;1.60;0.60;;;21.40;73.00;;;;;;5036561;28;20041;-77
2023/07/10 07:54:23;;;;;;;1.50;0.70;;;21.40;72.90;;;;;;5030307;28;20053;-77
2023/07/10 07:56:49;;;;;;;2.28;0.98;;;21.40;72.90;;;;;;5034159;28;20063;-78
2023/07/10 07:59:16;;;;;;;3.50;1.20;;;21.40;72.80;;;;;;5059621;28;20068;-78
2023/07/10 08:01:41;;;;;;;1.63;0.90;;;21.50;72.80;;;;;;5018668;28;20038;-77
2023/07/10 08:04:07;;;;;;;1.25;0.60;;;21.50;72.70;;;;;;5049257;28;20042;-77
2023/07/10 08:06:32;;;;;;;2.75;0.75;;;21.50;72.70;;;;;;5026531;28;20068;-77
2023/07/10 08:08:58;;;;;;;1.70;0.95;;;21.50;72.50;;;;;;5021749;28;20045;-77
2023/07/10 08:11:24;;;;;;;1.73;0.98;;;21.50;72.50;;;;;;5047960;28;22108;-77
2023/07/10 08:13:49;;;;;;;1.90;1.00;;;21.60;72.40;;;;;;5033030;28;20519;-77
2023/07/10 08:16:15;;;;;;;1.30;0.90;;;21.60;72.30;;;;;;5044461;28;20040;-78
2023/07/10 08:18:41;;;;;;;1.05;0.73;;;21.60;72.20;;;;;;5028560;28;20054;-77
2023/07/10 08:21:08;;;;;;;1.48;0.80;;;21.70;72.10;;;;;;5035422;28;20048;-78
2023/07/10 08:23:34;;;;;;;1.05;0.90;;;21.70;72.10;;;;;;5021026;28;20549;-77
2023/07/10 08:26:00;;;;;;;1.10;0.98;;;21.70;72.00;;;;;;5046745;28;20072;-78
2023/07/10 08:28:25;;;;;;;1.10;1.00;;;21.80;72.00;;;;;;5050268;28;20041;-78
2023/07/10 08:30:51;;;;;;;1.13;1.00;;;21.70;71.80;;;;;;5034753;28;20123;-78
2023/07/10 08:33:16;;;;;;;1.10;0.70;;;21.80;71.70;;;;;;5033201;28;20045;-78
2023/07/10 08:35:42;;;;;;;2.10;1.00;;;21.80;71.70;;;;;;5031884;28;20041;-78
2023/07/10 08:38:08;;;;;;;0.80;0.63;;;21.80;71.70;;;;;;5032023;28;20092;-78
2023/07/10 08:40:37;;;;;;;0.75;0.75;;;21.80;71.60;;;;;;5030872;28;20567;-78
2023/07/10 08:43:35;;;;;;;2.58;0.80;;;21.80;71.60;;;;;;5034416;28;20110;-78
2023/07/10 08:46:16;;;;;;;2.45;0.90;;;21.90;71.60;;;;;;5053246;28;20425;-78
2023/07/10 08:48:59;;;;;;;0.98;0.77;;;21.90;71.40;;;;;;5030544;28;20064;-78
2023/07/10 08:51:34;;;;;;;1.10;0.57;;;21.90;71.40;;;;;;5029859;28;20208;-78
2023/07/10 08:54:05;;;;;;;1.58;0.60;;;21.90;71.30;;;;;;5028302;28;20107;-77
2023/07/10 08:56:34;;;;;;;1.02;0.73;;;21.90;71.30;;;;;;5011949;28;20048;-77
2023/07/10 08:59:14;;;;;;;1.42;0.70;;;22.00;71.40;;;;;;5044911;28;20119;-77
2023/07/10 09:01:41;;;;;;;1.67;0.70;;;22.00;71.20;;;;;;5026799;28;20033;-77
2023/07/10 09:04:11;;;;;;;1.00;0.65;;;22.00;71.20;;;;;;5031279;28;20609;-77
2023/07/10 09:06:51;;;;;;;2.28;0.70;;;22.00;71.90;;;;;;5032711;28;20557;-77
2023/07/10 09:09:27;;;;;;;1.92;0.90;;;22.10;71.10;;;;;;5014216;28;20088;-76
2023/07/10 09:11:52;;;;;;;3.55;1.05;;;22.10;71.10;;;;;;5033320;28;20049;-77
2023/07/10 09:14:47;;;;;;;0.90;0.70;;;22.10;71.10;;;;;;5027967;28;20050;-77
2023/07/10 09:17:36;;;;;;;2.03;0.93;;;22.10;71.00;;;;;;5034590;28;20069;-77
2023/07/10 09:20:05;;;;;;;1.17;0.70;;;22.10;71.00;;;;;;5028450;28;20045;-77
2023/07/10 09:22:34;;;;;;;2.10;0.70;;;22.20;71.20;;;;;;5044960;28;20040;-77
2023/07/10 09:25:00;;;;;;;1.10;0.73;;;22.10;70.80;;;;;;5069837;28;20036;-77
2023/07/10 09:27:26;;;;;;;1.20;0.90;;;22.20;70.90;;;;;;5048350;28;20123;-77
2023/07/10 09:29:52;;;;;;;1.00;0.70;;;22.20;70.80;;;;;;5029821;28;20045;-77
2023/07/10 09:32:18;;;;;;;3.38;1.00;;;22.20;70.80;;;;;;5044934;28;20036;-77
2023/07/10 09:34:53;;;;;;;1.35;1.00;;;22.20;70.90;;;;;;5042797;28;20669;-77
2023/07/10 09:37:20;;;;;;;0.95;0.80;;;22.30;70.80;;;;;;5035442;28;20042;-77
2023/07/10 09:39:46;;;;;;;2.10;0.70;;;22.20;70.70;;;;;;5024054;28;20045;-78
2023/07/10 09:42:19;;;;;;;1.00;0.90;;;22.20;70.90;;;;;;5038292;28;20048;-78
2023/07/10 09:44:49;;;;;;;0.80;0.70;;;22.30;70.60;;;;;;5034524;28;20067;-78
2023/07/10 09:47:15;;;;;;;1.08;0.88;;;22.30;70.60;;;;;;5028274;28;20567;-77
2023/07/10 09:49:57;;;;;;;2.17;0.70;;;22.30;70.20;;;;;;5031437;28;20064;-77
2023/07/10 09:52:40;;;;;;;1.27;0.75;;;22.30;70.20;;;;;;5043692;28;20044;-77
2023/07/10 09:55:13;;;;;;;1.10;0.73;;;22.30;70.10;;;;;;5031462;28;20045;-77
2023/07/10 09:57:54;;;;;;;0.70;0.63;;;22.30;70.90;;;;;;5032116;28;20134;-77
2023/07/10 10:00:20;;;;;;;1.20;0.60;;;22.40;70.30;;;;;;5023691;28;20044;-78
2023/07/10 10:02:57;;;;;;;1.40;0.70;;;22.40;70.30;;;;;;5028587;28;20503;-77
2023/07/10 10:05:23;;;;;;;1.20;0.75;;;22.40;70.30;;;;;;5030940;28;20048;-78
2023/07/10 10:07:50;;;;;;;1.00;0.70;;;22.40;69.70;;;;;;5029189;28;20049;-77
2023/07/10 10:10:16;;;;;;;1.73;0.80;;;22.40;70.30;;;;;;5033201;28;20029;-78
2023/07/10 10:12:41;;;;;;;0.63;0.60;;;22.40;70.20;;;;;;5025915;28;20053;-78
2023/07/10 10:15:14;;;;;;;0.68;0.52;;;22.40;70.00;;;;;;5029894;28;20124;-77
2023/07/10 10:17:41;;;;;;;2.27;1.00;;;22.40;69.90;;;;;;5041750;28;20126;-77
2023/07/10 10:20:27;;;;;;;1.23;0.80;;;22.50;69.90;;;;;;5046390;28;21282;-77
2023/07/10 10:22:53;;;;;;;1.00;0.60;;;22.40;69.90;;;;;;5028881;28;20049;-78
2023/07/10 10:25:19;;;;;;;1.05;0.68;;;22.40;70.10;;;;;;5027374;28;20128;-78
2023/07/10 10:27:57;;;;;;;0.73;0.70;;;22.50;70.30;;;;;;5031795;28;20517;-78
2023/07/10 10:30:29;;;;;;;1.65;0.77;;;22.50;70.30;;;;;;5044064;28;20613;-78
2023/07/10 10:33:06;;;;;;;0.70;0.57;;;22.50;70.20;;;;;;5040668;28;20506;-77
2023/07/10 10:35:43;;;;;;;0.70;0.70;;;22.50;70.30;;;;;;5015364;28;20052;-77
2023/07/10 10:38:35;;;;;;;1.50;0.75;;;22.50;70.00;;;;;;5020770;28;20057;-78
2023/07/10 10:41:19;;;;;;;1.10;0.85;;;22.50;69.90;;;;;;5030796;28;20049;-77
2023/07/10 10:43:59;;;;;;;2.28;1.02;;;22.60;69.60;;;;;;5027468;28;20257;-77
2023/07/10 10:46:47;;;;;;;1.20;0.80;;;22.60;71.10;;;;;;5043451;28;20056;-76
2023/07/10 10:49:37;;;;;;;2.05;0.93;;;22.70;70.30;;;;;;5029074;28;20052;-76
2023/07/10 10:52:18;;;;;;;1.85;0.75;;;22.70;69.10;;;;;;5049753;28;20507;-75
2023/07/10 10:55:12;;;;;;;1.35;1.25;;;22.70;69.20;;;;;;5052867;28;20049;-75
2023/07/10 10:57:49;;;;;;;2.08;1.58;;;22.80;70.60;;;;;;5038014;28;20045;-75
2023/07/10 11:00:40;;;;;;;2.25;1.60;;;22.80;71.10;;;;;;5062774;28;20037;-75
2023/07/10 11:03:13;;;;;;;1.48;1.00;;;22.90;70.00;;;;;;4713535;28;9999833;-74
2023/07/10 11:05:50;;;;;;;2.45;1.13;;;22.90;69.70;;;;;;5064052;28;20044;-76
2023/07/10 11:08:26;;;;;;;2.25;1.05;;;22.90;69.60;;;;;;5039213;28;20048;-76
2023/07/10 11:10:52;;;;;;;4.47;1.15;;;22.80;69.10;;;;;;5036621;28;20042;-76
2023/07/10 11:13:34;;;;;;;0.93;0.82;;;22.80;69.00;;;;;;5036094;28;20044;-76
2023/07/10 11:16:01;;;;;;;1.15;1.05;;;22.80;69.00;;;;;;5027976;28;20049;-76
2023/07/10 11:18:26;;;;;;;2.75;0.70;;;22.80;69.10;;;;;;5021860;28;20045;-77
2023/07/10 11:20:52;;;;;;;3.08;1.00;;;22.80;69.00;;;;;;5036586;28;20124;-77
2023/07/10 11:23:35;;;;;;;0.80;0.60;;;22.90;69.00;;;;;;5013232;28;20046;-76
2023/07/10 11:26:09;;;;;;;1.10;0.80;;;22.80;68.80;;;;;;5031511;28;20120;-76
2023/07/10 11:28:35;;;;;;;2.60;0.90;;;22.90;68.80;;;;;;5044563;28;20083;-76
2023/07/10 11:31:24;;;;;;;1.02;0.73;;;22.90;68.70;;;;;;5053410;28;20131;-77
2023/07/10 11:33:52;;;;;;;1.45;0.85;;;22.90;68.50;;;;;;5044599;28;21336;-77
2023/07/10 11:36:19;;;;;;;1.45;0.70;;;22.90;68.40;;;;;;5050570;28;20043;-77
2023/07/10 11:39:10;;;;;;;0.70;0.60;;;22.90;68.40;;;;;;5023419;28;20147;-76
2023/07/10 11:41:42;;;;;;;2.40;0.90;;;22.90;68.30;;;;;;5027964;28;20041;-76
2023/07/10 11:44:11;;;;;;;1.13;0.60;;;23.00;68.30;;;;;;5024976;28;20054;-76
2023/07/10 11:46:54;;;;;;;2.20;0.80;;;23.00;68.30;;;;;;5003776;28;20045;-76
2023/07/10 11:49:20;;;;;;;1.70;0.98;;;23.00;68.40;;;;;;5031572;28;20083;-76
2023/07/10 11:52:14;;;;;;;0.57;0.57;;;23.00;68.20;;;;;;5031945;28;20179;-77
2023/07/10 11:54:49;;;;;;;1.65;0.70;;;23.00;68.10;;;;;;5029836;28;20037;-76
2023/07/10 11:57:22;;;;;;;1.20;0.80;;;23.00;68.00;;;;;;5029559;28;20049;-76
2023/07/10 11:59:55;;;;;;;1.20;0.70;;;23.00;67.80;;;;;;5022297;28;20049;-76
2023/07/10 12:02:32;;;;;;;1.17;0.98;;;23.10;67.70;;;;;;5030053;28;20105;-76
2023/07/10 12:05:32;;;;;;;0.60;0.50;;;23.10;67.30;;;;;;5033426;28;20141;-77
2023/07/10 12:08:10;;;;;;;2.20;0.82;;;23.00;67.40;;;;;;5017642;28;20298;-76
2023/07/10 12:10:45;;;;;;;1.85;0.90;;;23.10;67.20;;;;;;5029600;28;20053;-75
2023/07/10 12:13:19;;;;;;;3.03;0.90;;;23.10;67.40;;;;;;5054852;28;20033;-77
2023/07/10 12:15:46;;;;;;;2.20;0.70;;;23.10;66.50;;;;;;5051479;28;20532;-76
2023/07/10 12:18:16;;;;;;;2.72;0.65;;;23.20;66.40;;;;;;5034848;28;20532;-76
2023/07/10 12:20:41;;;;;;;3.05;0.98;;;23.20;66.20;;;;;;5031689;28;20239;-75
2023/07/10 12:23:11;;;;;;;2.15;0.98;;;23.20;66.50;;;;;;5027667;28;20127;-76
2023/07/10 12:25:36;;;;;;;1.25;0.75;;;23.20;64.60;;;;;;5035348;28;20053;-76
2023/07/10 12:28:03;;;;;;;2.53;0.70;;;23.20;66.10;;;;;;5012103;28;20124;-76
2023/07/10 12:30:35;;;;;;;2.00;0.63;;;23.20;66.00;;;;;;5061052;28;20040;-77
2023/07/10 12:33:01;;;;;;;1.15;0.80;;;23.20;66.60;;;;;;5030190;28;20056;-74
2023/07/10 12:35:37;;;;;;;15.32;1.70;;;23.10;66.70;;;;;;5045794;28;20041;-76
2023/07/10 12:38:03;;;;;;;2.20;0.85;;;23.20;68.20;;;;;;5024558;28;20057;-77
2023/07/10 12:40:29;;;;;;;2.30;0.65;;;23.20;67.80;;;;;;5041426;28;20049;-75
2023/07/10 12:42:55;;;;;;;13.60;1.25;;;23.10;67.50;;;;;;5032590;28;20046;-76
2023/07/10 12:45:28;;;;;;;3.40;0.50;;;23.20;67.40;;;;;;5022804;28;20038;-76
2023/07/10 12:47:56;;;;;;;2.40;1.50;;;23.20;67.60;;;;;;5027796;28;20033;-76
2023/07/10 12:50:32;;;;;;;4.28;2.60;;;23.20;68.00;;;;;;5046153;28;20037;-76
2023/07/10 12:52:57;;;;;;;4.60;3.28;;;23.20;68.10;;;;;;5048775;28;20041;-75
2023/07/10 12:55:24;;;;;;;4.65;2.92;;;23.20;68.00;;;;;;5027186;28;20424;-76